Time;durP1;ratioP1;P1;durP2;ratioP2;P2;SDS_P1;SDS_P2;PMS_P1;PMS_P2;Temp;Humidity;BMP_temperature;BMP_pressure;BME280_temperature;BME280_humidity;BME280_pressure;Samples;Min_cycle;Max_cycle;Signal;HPM_P1;HPM_P2
2023/11/06 00:00:16;;;;;;;28.85;14.32;;;;;;;7.15;100.00;99474.47;5030770;28;20037;-67
2023/11/06 00:02:45;;;;;;;26.00;16.65;;;;;;;7.13;100.00;99465.88;5030738;28;20034;-65
2023/11/06 00:05:13;;;;;;;23.90;16.07;;;;;;;7.16;100.00;99467.34;5030912;28;20420;-64
2023/11/06 00:07:38;;;;;;;26.50;16.43;;;;;;;7.11;100.00;99465.22;5031118;28;20033;-67
2023/11/06 00:10:04;;;;;;;27.73;18.70;;;;;;;7.19;100.00;99468.81;5031079;28;20045;-65
2023/11/06 00:12:33;;;;;;;32.83;20.10;;;;;;;7.06;100.00;99445.56;5032264;28;20124;-65
2023/11/06 00:14:58;;;;;;;33.08;19.73;;;;;;;7.16;100.00;99459.41;5034790;28;20041;-66
2023/11/06 00:17:24;;;;;;;32.17;20.50;;;;;;;7.06;100.00;99451.66;5034624;28;20120;-66
2023/11/06 00:19:49;;;;;;;32.37;20.83;;;;;;;7.07;100.00;99444.56;5034632;28;20045;-65
2023/11/06 00:22:17;;;;;;;28.67;19.33;;;;;;;7.18;100.00;99461.88;5034683;28;20461;-68
2023/11/06 00:24:42;;;;;;;32.47;20.30;;;;;;;7.14;100.00;99467.50;5034658;28;20536;-64
2023/11/06 00:27:08;;;;;;;31.60;19.43;;;;;;;7.12;100.00;99464.22;5034845;28;20140;-63
2023/11/06 00:29:34;;;;;;;37.27;20.90;;;;;;;7.09;100.00;99459.25;5034552;28;20041;-61
2023/11/06 00:32:02;;;;;;;31.13;21.33;;;;;;;7.14;100.00;99466.69;5034200;28;20029;-63
2023/11/06 00:34:29;;;;;;;35.45;21.88;;;;;;;7.04;100.00;99445.72;5034485;28;20052;-65
2023/11/06 00:36:54;;;;;;;29.23;20.93;;;;;;;7.11;100.00;99451.97;5034461;28;20400;-65
2023/11/06 00:39:20;;;;;;;32.50;22.57;;;;;;;7.10;100.00;99439.75;5034035;28;20041;-63
2023/11/06 00:41:46;;;;;;;30.10;20.20;;;;;;;7.24;100.00;99451.44;5033676;28;20469;-63
2023/11/06 00:44:11;;;;;;;31.03;20.63;;;;;;;7.29;100.00;99449.09;5033786;28;20029;-66
2023/11/06 00:46:37;;;;;;;34.57;21.70;;;;;;;7.20;100.00;99420.97;5033865;28;20044;-63
2023/11/06 00:49:03;;;;;;;34.83;21.87;;;;;;;7.30;100.00;99436.66;5033964;28;20473;-64
2023/11/06 00:51:28;;;;;;;36.73;23.10;;;;;;;7.25;100.00;99431.09;5032790;28;20049;-67
2023/11/06 00:53:54;;;;;;;35.30;21.60;;;;;;;7.29;100.00;99441.16;5032999;28;20051;-64
2023/11/06 00:56:20;;;;;;;34.83;22.77;;;;;;;7.30;100.00;99423.44;5032615;28;20488;-66
2023/11/06 00:58:46;;;;;;;33.03;21.00;;;;;;;7.23;100.00;99412.72;5033593;28;20040;-68
2023/11/06 01:01:13;;;;;;;30.73;21.63;;;;;;;7.23;100.00;99418.00;5033277;28;20034;-64
2023/11/06 01:03:39;;;;;;;29.33;19.23;;;;;;;7.15;100.00;99410.91;5033859;28;20061;-66
2023/11/06 01:06:05;;;;;;;27.70;18.10;;;;;;;7.20;100.00;99420.16;5033761;28;20481;-65
2023/11/06 01:08:30;;;;;;;29.30;18.40;;;;;;;7.10;100.00;99410.63;5033597;28;20132;-65
2023/11/06 01:10:56;;;;;;;27.33;16.37;;;;;;;7.09;100.00;99408.97;5033602;28;20037;-64
2023/11/06 01:13:22;;;;;;;24.63;15.97;;;;;;;7.11;100.00;99406.97;5033783;28;20128;-64
2023/11/06 01:15:48;;;;;;;23.87;17.43;;;;;;;6.93;100.00;99368.50;5033426;28;20041;-65
2023/11/06 01:18:13;;;;;;;22.83;16.13;;;;;;;7.04;100.00;99391.97;5033585;28;20473;-63
2023/11/06 01:20:40;;;;;;;19.07;14.80;;;;;;;7.11;100.00;99409.63;5033525;28;20033;-65
2023/11/06 01:23:06;;;;;;;20.60;14.93;;;;;;;7.20;100.00;99423.63;5033314;28;20088;-64
2023/11/06 01:25:32;;;;;;;18.87;14.27;;;;;;;7.22;100.00;99432.22;5033693;28;20037;-63
2023/11/06 01:27:58;;;;;;;19.00;13.40;;;;;;;6.98;100.00;99385.53;5033363;28;20497;-63
2023/11/06 01:30:24;;;;;;;17.67;13.50;;;;;;;7.09;100.00;99400.19;5033210;28;20034;-62
2023/11/06 01:32:50;;;;;;;21.20;13.63;;;;;;;7.14;100.00;99403.97;5033384;28;20448;-64
2023/11/06 01:35:19;;;;;;;20.57;14.33;;;;;;;7.11;100.00;99406.16;5033469;28;20033;-67
2023/11/06 01:37:45;;;;;;;16.27;12.73;;;;;;;7.17;100.00;99413.38;5033203;28;20040;-65
2023/11/06 01:40:11;;;;;;;15.60;12.50;;;;;;;7.11;100.00;99409.63;5033259;28;20033;-66
2023/11/06 01:42:38;;;;;;;16.10;11.73;;;;;;;7.13;100.00;99407.63;5032978;28;20037;-63
2023/11/06 01:45:07;;;;;;;15.97;11.30;;;;;;;7.17;100.00;99408.09;5032787;28;20552;-62
2023/11/06 01:47:34;;;;;;;14.90;11.43;;;;;;;7.09;100.00;99395.72;5032779;28;20033;-64
2023/11/06 01:50:03;;;;;;;17.83;11.50;;;;;;;7.06;100.00;99388.13;5032983;28;20514;-65
2023/11/06 01:52:30;;;;;;;14.00;10.23;;;;;;;7.11;100.00;99387.63;5033059;28;20485;-63
2023/11/06 01:54:57;;;;;;;15.70;11.27;;;;;;;7.11;100.00;99393.72;5032936;28;20045;-69
2023/11/06 01:57:24;;;;;;;13.90;10.60;;;;;;;7.13;100.00;99404.97;5031273;28;20041;-65
2023/11/06 01:59:50;;;;;;;11.63;9.70;;;;;;;7.11;100.00;99387.63;5032867;28;20040;-65
2023/11/06 02:02:19;;;;;;;9.97;8.53;;;;;;;7.20;100.00;99385.72;5032749;28;20088;-63
2023/11/06 02:04:48;;;;;;;13.70;10.15;;;;;;;7.26;100.00;99395.66;5032841;28;20035;-67
2023/11/06 02:07:15;;;;;;;12.40;10.03;;;;;;;7.21;100.00;99388.22;5032544;28;20037;-62
2023/11/06 02:09:42;;;;;;;11.87;9.87;;;;;;;7.12;100.00;99373.38;5032563;28;20041;-65
2023/11/06 02:12:09;;;;;;;12.30;11.00;;;;;;;7.21;100.00;99385.56;5032624;28;20030;-64
2023/11/06 02:14:57;;;;;;;11.67;9.53;;;;;;;7.25;100.00;99384.25;5032789;28;20120;-64
2023/11/06 02:17:25;;;;;;;11.93;9.02;;;;;;;7.28;100.00;99383.06;5032145;28;20044;-63
2023/11/06 02:19:51;;;;;;;10.63;8.95;;;;;;;7.09;100.00;99356.03;5032320;28;20048;-64
2023/11/06 02:22:20;;;;;;;12.93;9.67;;;;;;;7.35;100.00;99386.66;5030984;28;20036;-65
2023/11/06 02:24:47;;;;;;;10.85;9.10;;;;;;;7.39;100.00;99380.81;5032457;28;20515;-64
2023/11/06 02:27:14;;;;;;;10.47;9.07;;;;;;;7.35;100.00;99376.88;5032225;28;20068;-65
2023/11/06 02:29:40;;;;;;;11.93;7.77;;;;;;;7.33;100.00;99383.34;5032202;28;20053;-66
2023/11/06 02:32:06;;;;;;;14.40;8.60;;;;;;;7.26;100.00;99366.53;5032372;28;20041;-63
2023/11/06 02:34:34;;;;;;;9.30;7.90;;;;;;;7.32;100.00;99379.06;5031715;28;20037;-66
2023/11/06 02:37:00;;;;;;;10.02;8.57;;;;;;;7.33;100.00;99370.13;5031808;28;20139;-63
2023/11/06 02:39:25;;;;;;;11.50;8.27;;;;;;;7.35;100.00;99381.34;5032082;28;20037;-67
2023/11/06 02:41:51;;;;;;;9.83;7.80;;;;;;;7.39;100.00;99380.81;5031988;28;20523;-64
2023/11/06 02:44:17;;;;;;;9.10;8.00;;;;;;;7.40;100.00;99386.94;5031859;28;20083;-63
2023/11/06 02:46:42;;;;;;;9.03;7.27;;;;;;;7.33;100.00;99378.06;5031849;28;20037;-64
2023/11/06 02:49:08;;;;;;;8.70;7.00;;;;;;;7.33;100.00;99386.81;5031890;28;20037;-64
2023/11/06 02:51:33;;;;;;;10.17;8.13;;;;;;;7.31;100.00;99391.47;5031646;28;20033;-65
2023/11/06 02:54:01;;;;;;;11.63;8.53;;;;;;;7.24;100.00;99371.19;5031808;28;20087;-66
2023/11/06 02:56:34;;;;;;;12.65;8.77;;;;;;;7.37;100.00;99374.88;5031914;28;20034;-64
2023/11/06 02:59:02;;;;;;;9.47;7.57;;;;;;;7.22;100.00;99354.59;5031777;28;20039;-66
2023/11/06 03:01:28;;;;;;;9.05;7.50;;;;;;;7.24;100.00;99366.69;5031758;28;20033;-65
2023/11/06 03:03:53;;;;;;;10.90;7.67;;;;;;;7.21;100.00;99355.59;5030485;28;20052;-66
2023/11/06 03:06:19;;;;;;;8.90;7.47;;;;;;;7.28;100.00;99375.94;5015630;28;20132;-65
2023/11/06 03:08:45;;;;;;;8.73;7.07;;;;;;;7.29;100.00;99382.88;5034373;28;20117;-65
2023/11/06 03:11:10;;;;;;;11.27;8.57;;;;;;;7.22;100.00;99373.97;5032536;28;20045;-63
2023/11/06 03:13:36;;;;;;;10.47;8.10;;;;;;;7.25;100.00;99384.25;5034567;28;20500;-63
2023/11/06 03:16:02;;;;;;;8.50;7.40;;;;;;;7.26;100.00;99379.78;5033877;28;20033;-61
2023/11/06 03:18:28;;;;;;;9.40;8.40;;;;;;;7.24;100.00;99365.88;5033778;28;20033;-64
2023/11/06 03:20:54;;;;;;;12.27;8.33;;;;;;;7.25;100.00;99356.94;5034276;28;20484;-62
2023/11/06 03:23:19;;;;;;;11.60;8.80;;;;;;;7.25;100.00;99359.59;5033474;28;20065;-63
2023/11/06 03:25:45;;;;;;;9.17;7.77;;;;;;;7.33;100.00;99367.47;5034056;28;20046;-63
2023/11/06 03:28:11;;;;;;;9.90;7.77;;;;;;;7.24;100.00;99347.34;5033725;28;20099;-66
2023/11/06 03:30:37;;;;;;;9.47;7.83;;;;;;;7.30;100.00;99355.41;5033773;28;20479;-64
2023/11/06 03:33:03;;;;;;;10.10;7.90;;;;;;;7.38;100.00;99363.28;5034213;28;20033;-62
2023/11/06 03:35:28;;;;;;;10.87;7.27;;;;;;;7.35;100.00;99358.34;5033149;28;20033;-65
2023/11/06 03:37:54;;;;;;;8.50;7.60;;;;;;;7.36;100.00;99364.47;5034624;28;20045;-65
2023/11/06 03:40:19;;;;;;;10.47;7.53;;;;;;;7.20;100.00;99343.38;5032453;28;20041;-65
2023/11/06 03:42:45;;;;;;;7.90;7.10;;;;;;;6.90;100.00;99300.88;5032868;28;20048;-68
2023/11/06 03:45:10;;;;;;;9.30;7.63;;;;;;;7.26;100.00;99361.22;5031583;28;20037;-65
2023/11/06 03:47:37;;;;;;;10.33;7.80;;;;;;;7.24;100.00;99363.22;5035068;28;20049;-64
2023/11/06 03:50:03;;;;;;;8.67;7.23;;;;;;;7.24;100.00;99363.22;5035697;28;20029;-63
2023/11/06 03:52:29;;;;;;;8.57;6.77;;;;;;;7.22;100.00;99362.56;5036770;28;20496;-65
2023/11/06 03:54:55;;;;;;;8.60;7.70;;;;;;;7.26;100.00;99348.81;5037237;28;20076;-64
2023/11/06 03:57:22;;;;;;;9.00;6.80;;;;;;;7.32;100.00;99344.63;5036011;28;20049;-66
2023/11/06 03:59:47;;;;;;;8.93;8.03;;;;;;;7.31;100.00;99350.94;5036406;28;20053;-66
2023/11/06 04:02:13;;;;;;;7.53;6.73;;;;;;;7.24;100.00;99340.22;5036196;28;20472;-64
2023/11/06 04:04:39;;;;;;;9.97;7.50;;;;;;;7.26;100.00;99338.22;5035535;28;20041;-65
2023/11/06 04:07:05;;;;;;;7.77;6.97;;;;;;;7.34;100.00;99345.28;5036075;28;20091;-64
2023/11/06 04:09:32;;;;;;;7.80;7.00;;;;;;;7.29;100.00;99337.03;5018527;28;20123;-64
2023/11/06 04:11:58;;;;;;;7.15;6.45;;;;;;;7.22;100.00;99321.00;5034879;28;20072;-65
2023/11/06 04:14:24;;;;;;;6.83;6.20;;;;;;;7.25;100.00;99349.00;5036491;28;20073;-63
2023/11/06 04:16:49;;;;;;;8.70;7.20;;;;;;;7.15;100.00;99341.25;5036822;28;20116;-65
2023/11/06 04:19:15;;;;;;;9.50;7.23;;;;;;;7.22;100.00;99351.97;5037970;28;20411;-62
2023/11/06 04:21:40;;;;;;;7.53;6.57;;;;;;;7.21;100.00;99342.38;5034883;28;20121;-66
2023/11/06 04:24:06;;;;;;;7.07;6.37;;;;;;;7.27;100.00;99350.47;5036663;28;20549;-65
2023/11/06 04:26:32;;;;;;;8.00;6.97;;;;;;;7.21;100.00;99339.72;5036328;28;20041;-63
2023/11/06 04:28:57;;;;;;;8.43;6.60;;;;;;;7.30;100.00;99350.09;5036326;28;20156;-64
2023/11/06 04:31:23;;;;;;;6.37;5.77;;;;;;;7.31;100.00;99349.09;5035866;28;20082;-64
2023/11/06 04:33:48;;;;;;;9.90;6.73;;;;;;;7.28;100.00;99351.28;5036552;28;20037;-63
2023/11/06 04:36:14;;;;;;;7.27;6.17;;;;;;;7.20;100.00;99356.59;5035541;28;20041;-65
2023/11/06 04:38:40;;;;;;;11.73;6.80;;;;;;;7.00;100.00;99327.97;5036080;28;20207;-62
2023/11/06 04:41:05;;;;;;;8.30;6.17;;;;;;;7.18;100.00;99353.31;5036028;28;20107;-64
2023/11/06 04:43:31;;;;;;;7.40;6.07;;;;;;;7.23;100.00;99349.16;5035912;28;20048;-61
2023/11/06 04:45:57;;;;;;;8.40;5.63;;;;;;;7.22;100.00;99341.38;5035749;28;20042;-63
2023/11/06 04:48:23;;;;;;;7.03;6.03;;;;;;;7.28;100.00;99351.28;5033729;28;20045;-66
2023/11/06 04:50:49;;;;;;;7.30;5.60;;;;;;;7.08;100.00;99324.44;5035387;28;20101;-61
2023/11/06 04:53:15;;;;;;;9.63;5.90;;;;;;;7.20;100.00;99344.19;5036648;28;20125;-65
2023/11/06 04:55:41;;;;;;;5.90;5.30;;;;;;;7.08;100.00;99327.91;5037397;28;20054;-62
2023/11/06 04:58:06;;;;;;;6.53;5.80;;;;;;;7.04;100.00;99323.13;5035607;28;20061;-66
2023/11/06 05:00:32;;;;;;;6.37;5.63;;;;;;;7.15;100.00;99333.31;5036615;28;20042;-67
2023/11/06 05:02:58;;;;;;;5.87;5.37;;;;;;;7.07;100.00;99328.91;5018701;28;20037;-61
2023/11/06 05:05:24;;;;;;;6.30;5.70;;;;;;;7.12;100.00;99331.84;5036709;28;20124;-67
2023/11/06 05:07:52;;;;;;;7.40;5.30;;;;;;;7.09;100.00;99331.38;5036638;28;20048;-66
2023/11/06 05:10:17;;;;;;;6.50;5.27;;;;;;;7.08;100.00;99324.44;5037415;28;20029;-65
2023/11/06 05:12:44;;;;;;;5.73;4.83;;;;;;;7.14;100.00;99326.38;5041317;28;20045;-63
2023/11/06 05:15:10;;;;;;;5.20;4.70;;;;;;;7.14;100.00;99327.19;5040208;28;20544;-63
2023/11/06 05:17:35;;;;;;;9.13;4.60;;;;;;;6.90;100.00;99287.63;5023521;28;20447;-65
2023/11/06 05:20:02;;;;;;;6.87;5.10;;;;;;;7.20;100.00;99316.91;5037905;28;20128;-64
2023/11/06 05:22:31;;;;;;;5.78;5.05;;;;;;;7.21;100.00;99319.38;5033875;28;20046;-64
2023/11/06 05:24:56;;;;;;;7.70;4.27;;;;;;;6.89;100.00;99271.94;5035218;28;20133;-63
2023/11/06 05:27:22;;;;;;;8.90;5.40;;;;;;;7.25;100.00;99319.88;5033559;28;20132;-65
2023/11/06 05:29:47;;;;;;;4.50;4.10;;;;;;;7.30;100.00;99325.44;5035374;28;20041;-65
2023/11/06 05:32:13;;;;;;;5.20;4.70;;;;;;;7.29;100.00;99310.56;5035839;28;20400;-64
2023/11/06 05:34:39;;;;;;;4.50;4.10;;;;;;;7.26;100.00;99305.63;5033843;28;20025;-64
2023/11/06 05:37:06;;;;;;;3.80;3.50;;;;;;;7.26;100.00;99295.03;5034508;28;20072;-64
2023/11/06 05:39:32;;;;;;;4.77;4.13;;;;;;;7.23;100.00;99304.16;5035799;28;20084;-65
2023/11/06 05:41:58;;;;;;;4.00;3.70;;;;;;;6.98;100.00;99277.03;5036038;28;20037;-66
2023/11/06 05:44:24;;;;;;;3.67;3.20;;;;;;;7.12;100.00;99305.38;5035186;28;20033;-63
2023/11/06 05:46:49;;;;;;;3.90;3.50;;;;;;;6.91;100.00;99276.06;5036633;28;20072;-67
2023/11/06 05:49:15;;;;;;;4.30;3.90;;;;;;;7.03;100.00;99295.00;5035204;28;20037;-69
2023/11/06 05:51:40;;;;;;;4.67;3.87;;;;;;;7.01;100.00;99294.38;5035352;28;20148;-65
2023/11/06 05:54:06;;;;;;;5.47;3.70;;;;;;;7.00;100.00;99290.91;5035776;28;20037;-65
2023/11/06 05:56:33;;;;;;;4.00;3.60;;;;;;;6.87;100.00;99277.41;5018263;28;20488;-66
2023/11/06 05:58:59;;;;;;;4.20;3.87;;;;;;;6.96;100.00;99294.91;5035880;28;20047;-65
2023/11/06 06:01:24;;;;;;;3.37;3.03;;;;;;;6.98;100.00;99281.50;5035116;28;20140;-65
2023/11/06 06:03:50;;;;;;;4.83;3.50;;;;;;;7.04;100.00;99294.84;5037429;28;20033;-65
2023/11/06 06:06:16;;;;;;;4.10;3.67;;;;;;;7.02;100.00;99288.91;5035842;28;20064;-67
2023/11/06 06:08:43;;;;;;;4.10;3.70;;;;;;;7.01;100.00;99289.91;5035010;28;20041;-66
2023/11/06 06:11:08;;;;;;;3.90;3.30;;;;;;;6.99;100.00;99294.53;5036158;28;20111;-65
2023/11/06 06:13:34;;;;;;;3.90;3.57;;;;;;;6.84;100.00;99270.63;5037693;28;20041;-66
2023/11/06 06:16:02;;;;;;;3.60;3.30;;;;;;;6.97;100.00;99301.84;5037550;28;20041;-65
2023/11/06 06:18:28;;;;;;;4.07;3.25;;;;;;;6.87;100.00;99282.69;5035494;28;20117;-66
2023/11/06 06:20:54;;;;;;;4.00;3.50;;;;;;;6.81;100.00;99260.41;5037782;28;20040;-61
2023/11/06 06:23:19;;;;;;;3.37;3.07;;;;;;;6.77;100.00;99263.59;5037364;28;20428;-65
2023/11/06 06:25:45;;;;;;;4.40;3.10;;;;;;;6.85;100.00;99287.34;5037360;28;20037;-68
2023/11/06 06:28:11;;;;;;;3.33;3.03;;;;;;;6.92;100.00;99296.22;5035718;28;20037;-63
2023/11/06 06:30:36;;;;;;;2.73;2.53;;;;;;;6.92;100.00;99298.03;5034857;28;20033;-64
2023/11/06 06:33:02;;;;;;;2.53;2.33;;;;;;;6.79;100.00;99283.56;5034189;28;20033;-64
2023/11/06 06:35:28;;;;;;;2.80;2.60;;;;;;;6.94;100.00;99296.91;5032528;28;20132;-65
2023/11/06 06:37:53;;;;;;;3.33;2.30;;;;;;;6.92;100.00;99290.09;5033324;28;20484;-63
2023/11/06 06:40:20;;;;;;;3.07;2.50;;;;;;;6.93;100.00;99299.69;5016456;28;20072;-65
2023/11/06 06:42:47;;;;;;;3.77;2.20;;;;;;;6.53;100.00;99244.19;5033725;28;20068;-66
2023/11/06 06:45:13;;;;;;;2.60;2.27;;;;;;;6.63;100.00;99251.09;5032065;28;20044;-65
2023/11/06 06:47:38;;;;;;;2.67;2.47;;;;;;;6.82;100.00;99287.69;5031963;28;20045;-64
2023/11/06 06:50:05;;;;;;;2.47;2.27;;;;;;;6.87;100.00;99306.50;5031733;28;20534;-67
2023/11/06 06:52:31;;;;;;;3.87;2.50;;;;;;;6.77;100.00;99290.03;5031831;28;20033;-66
2023/11/06 06:54:56;;;;;;;4.00;2.33;;;;;;;6.66;100.00;99274.56;5031810;28;20182;-66
2023/11/06 06:57:22;;;;;;;2.60;2.40;;;;;;;6.81;100.00;99299.28;5031565;28;20397;-66
2023/11/06 06:59:48;;;;;;;2.40;2.13;;;;;;;6.74;100.00;99295.69;5031554;28;20040;-66
2023/11/06 07:02:13;;;;;;;3.60;2.33;;;;;;;6.78;100.00;99296.97;5031485;28;20480;-69
2023/11/06 07:04:40;;;;;;;2.67;2.30;;;;;;;6.47;100.00;99244.91;5031672;28;20053;-64
2023/11/06 07:07:07;;;;;;;2.50;2.27;;;;;;;6.77;100.00;99290.88;5031575;28;20029;-64
2023/11/06 07:09:33;;;;;;;2.90;2.37;;;;;;;6.73;100.00;99283.44;5031526;28;20183;-66
2023/11/06 07:12:03;;;;;;;2.73;2.40;;;;;;;6.66;100.00;99271.94;5031382;28;20654;-66
2023/11/06 07:14:28;;;;;;;2.63;2.40;;;;;;;6.73;100.00;99292.22;5031663;28;20041;-68
2023/11/06 07:17:03;;;;;;;2.77;2.03;;;;;;;6.78;100.00;99303.09;5031624;28;20128;-64
2023/11/06 07:19:30;;;;;;;2.77;2.50;;;;;;;6.73;100.00;99305.44;5031434;28;20120;-66
2023/11/06 07:21:55;;;;;;;2.60;2.23;;;;;;;6.74;100.00;99295.69;5031201;28;20469;-66
2023/11/06 07:24:23;;;;;;;2.57;2.37;;;;;;;5.97;100.00;99165.16;5031385;28;20057;-66
2023/11/06 07:26:49;;;;;;;2.73;2.53;;;;;;;6.73;100.00;99296.69;5030467;28;20385;-65
2023/11/06 07:29:14;;;;;;;3.17;2.90;;;;;;;6.74;100.00;99285.94;5030751;28;20311;-65
2023/11/06 07:31:40;;;;;;;4.43;2.60;;;;;;;6.81;100.00;99302.75;5031483;28;20044;-64
2023/11/06 07:34:06;;;;;;;2.90;2.60;;;;;;;6.78;100.00;99294.34;5031072;28;20404;-67
2023/11/06 07:36:32;;;;;;;3.17;2.87;;;;;;;6.73;100.00;99284.28;5030894;28;20043;-66
2023/11/06 07:38:57;;;;;;;11.50;4.27;;;;;;;6.88;100.00;99297.56;5031133;28;20499;-66
2023/11/06 07:41:24;;;;;;;3.93;3.00;;;;;;;6.92;100.00;99284.81;5031296;28;20029;-65
2023/11/06 07:43:49;;;;;;;4.73;2.80;;;;;;;6.98;100.00;99292.06;5031332;28;20124;-65
2023/11/06 07:46:19;;;;;;;3.70;3.33;;;;;;;7.00;100.00;99285.59;5031653;28;20124;-65
2023/11/06 07:48:48;;;;;;;4.30;2.90;;;;;;;7.06;100.00;99290.19;5031448;28;20438;-64
2023/11/06 07:51:14;;;;;;;5.90;3.47;;;;;;;7.01;100.00;99283.78;5032333;28;20033;-67
2023/11/06 07:53:39;;;;;;;3.60;2.80;;;;;;;6.91;100.00;99262.00;5032590;28;20385;-67
2023/11/06 07:56:09;;;;;;;4.30;3.80;;;;;;;7.10;100.00;99282.72;5031289;28;20034;-65
2023/11/06 07:58:35;;;;;;;5.07;2.50;;;;;;;7.19;100.00;99289.59;5031459;28;20049;-66
2023/11/06 08:01:01;;;;;;;7.87;3.97;;;;;;;6.84;100.00;99260.06;5031063;28;20534;-67
2023/11/06 08:03:27;;;;;;;4.23;2.97;;;;;;;7.04;100.00;99286.91;5021725;28;20072;-67
2023/11/06 08:05:56;;;;;;;8.53;3.23;;;;;;;7.04;100.00;99292.19;5020153;28;20449;-71
2023/11/06 08:08:21;;;;;;;7.53;3.97;;;;;;;7.03;100.00;99289.72;5018932;28;20042;-66
2023/11/06 08:10:55;;;;;;;7.80;3.67;;;;;;;7.14;100.00;99298.06;5011697;28;20358;-63
2023/11/06 08:13:21;;;;;;;4.97;3.20;;;;;;;7.12;100.00;99293.94;5014810;28;20041;-63
2023/11/06 08:15:47;;;;;;;8.77;3.37;;;;;;;7.11;100.00;99303.72;5024373;28;20492;-65
2023/11/06 08:18:13;;;;;;;7.60;3.70;;;;;;;7.07;100.00;99296.31;5021331;28;20083;-64
2023/11/06 08:20:39;;;;;;;4.60;3.20;;;;;;;7.02;100.00;99293.38;5020005;28;20037;-64
2023/11/06 08:23:05;;;;;;;4.87;3.57;;;;;;;7.04;100.00;99280.78;5020301;28;20156;-66
2023/11/06 08:25:31;;;;;;;7.23;4.10;;;;;;;7.11;100.00;99271.94;5016272;28;20037;-65
2023/11/06 08:27:57;;;;;;;8.20;3.77;;;;;;;7.20;100.00;99285.13;5010988;28;20095;-65
2023/11/06 08:30:23;;;;;;;5.57;3.70;;;;;;;7.24;100.00;99271.38;5011174;28;20121;-65
2023/11/06 08:32:48;;;;;;;6.00;3.37;;;;;;;6.97;100.00;99234.84;5019632;28;20034;-66
2023/11/06 08:35:14;;;;;;;15.73;4.53;;;;;;;7.28;100.00;99277.13;5028424;28;20044;-66
2023/11/06 08:37:41;;;;;;;5.57;3.57;;;;;;;7.27;100.00;99265.72;5034218;28;20111;-65
2023/11/06 08:40:07;;;;;;;7.33;4.40;;;;;;;7.35;100.00;99280.72;5032976;28;20504;-66
2023/11/06 08:42:33;;;;;;;5.27;3.73;;;;;;;7.35;100.00;99283.38;5033396;28;20246;-66
2023/11/06 08:44:58;;;;;;;6.50;3.40;;;;;;;7.23;100.00;99266.22;5032531;28;20121;-67
2023/11/06 08:47:24;;;;;;;4.53;3.87;;;;;;;7.25;100.00;99262.44;5033319;28;21996;-64
2023/11/06 08:49:49;;;;;;;7.03;4.13;;;;;;;7.14;100.00;99247.75;5031837;28;20067;-64
2023/11/06 08:52:16;;;;;;;6.13;3.90;;;;;;;7.14;100.00;99262.81;5023246;28;20530;-68
2023/11/06 08:54:45;;;;;;;7.17;4.50;;;;;;;7.19;100.00;99273.72;5030977;28;20038;-68
2023/11/06 08:57:13;;;;;;;6.13;4.50;;;;;;;7.17;100.00;99269.59;5033812;28;20037;-66
2023/11/06 08:59:45;;;;;;;3.60;3.27;;;;;;;7.06;100.00;99274.31;5031790;28;20356;-68
2023/11/06 09:02:11;;;;;;;6.97;4.03;;;;;;;6.89;100.00;99248.94;5031506;28;20184;-63
2023/11/06 09:04:42;;;;;;;3.83;3.53;;;;;;;7.00;100.00;99275.03;5021643;28;20136;-65
2023/11/06 09:07:09;;;;;;;4.27;3.70;;;;;;;6.83;100.00;99262.88;5027396;28;20039;-74
2023/11/06 09:09:46;;;;;;;6.93;3.97;;;;;;;6.80;100.00;99256.13;5032016;28;20590;-74
2023/11/06 09:12:15;;;;;;;5.60;4.37;;;;;;;6.91;100.00;99270.75;5033541;28;20037;-67
2023/11/06 09:14:40;;;;;;;4.30;3.90;;;;;;;6.94;100.00;99264.28;5033260;28;20037;-67
2023/11/06 09:17:06;;;;;;;4.20;3.83;;;;;;;6.78;100.00;99250.19;5030647;28;20064;-67
2023/11/06 09:19:32;;;;;;;4.23;3.93;;;;;;;6.46;100.00;99190.34;5033519;28;20623;-68
2023/11/06 09:21:58;;;;;;;6.63;4.87;;;;;;;6.58;100.00;99200.53;5033643;28;20140;-64
2023/11/06 09:24:29;;;;;;;8.63;4.93;;;;;;;6.76;100.00;99238.13;5033923;28;20057;-65
2023/11/06 09:26:56;;;;;;;6.13;4.27;;;;;;;6.81;100.00;99243.72;5034256;28;20402;-69
2023/11/06 09:29:22;;;;;;;4.30;4.00;;;;;;;6.85;100.00;99247.66;5033749;28;20513;-69
2023/11/06 09:31:47;;;;;;;5.20;4.70;;;;;;;6.91;100.00;99248.75;5031870;28;20076;-69
2023/11/06 09:34:14;;;;;;;8.73;5.53;;;;;;;6.98;100.00;99250.56;5032372;28;20069;-70
2023/11/06 09:36:39;;;;;;;7.53;5.43;;;;;;;7.03;100.00;99242.06;5033154;28;20507;-69
2023/11/06 09:39:09;;;;;;;6.47;5.20;;;;;;;6.98;100.00;99234.66;5031650;28;20041;-67
2023/11/06 09:41:38;;;;;;;8.23;6.20;;;;;;;6.84;100.00;99216.88;5032792;28;20474;-67
2023/11/06 09:44:06;;;;;;;7.30;5.93;;;;;;;6.76;100.00;99199.25;5031647;28;20038;-66
2023/11/06 09:46:33;;;;;;;7.32;5.80;;;;;;;6.92;100.00;99230.06;5032682;28;20072;-66
2023/11/06 09:49:14;;;;;;;6.87;6.17;;;;;;;6.91;100.00;99236.34;5032131;28;20416;-64
2023/11/06 09:51:41;;;;;;;5.77;5.00;;;;;;;7.00;100.00;99247.72;5030344;28;20041;-67
2023/11/06 09:54:10;;;;;;;6.90;5.17;;;;;;;6.93;100.00;99230.88;5032321;28;20045;-66
2023/11/06 09:56:42;;;;;;;6.60;4.80;;;;;;;7.07;100.00;99249.47;5028818;28;20487;-68
2023/11/06 09:59:08;;;;;;;5.73;5.23;;;;;;;7.06;100.00;99241.72;5029337;28;20136;-66
2023/11/06 10:01:51;;;;;;;7.47;5.43;;;;;;;7.20;100.00;99242.75;5031410;28;20046;-63
2023/11/06 10:04:17;;;;;;;6.23;5.37;;;;;;;7.26;100.00;99247.38;5031829;28;20037;-64
2023/11/06 10:06:44;;;;;;;8.13;5.77;;;;;;;7.31;100.00;99245.81;5031623;28;20047;-62
2023/11/06 10:09:23;;;;;;;7.80;5.37;;;;;;;7.24;100.00;99238.78;5031397;28;20067;-63
2023/11/06 10:11:51;;;;;;;6.67;5.03;;;;;;;7.13;100.00;99230.25;5031094;28;20460;-68
2023/11/06 10:14:16;;;;;;;13.67;5.40;;;;;;;7.14;100.00;99233.72;5015401;28;20118;-65
2023/11/06 10:16:42;;;;;;;9.70;4.87;;;;;;;7.11;100.00;99245.47;5033788;28;20042;-65
2023/11/06 10:19:12;;;;;;;10.83;5.47;;;;;;;6.97;100.00;99233.03;5033238;28;20128;-63
2023/11/06 10:21:41;;;;;;;6.37;5.33;;;;;;;6.90;100.00;99245.28;5034374;28;20041;-66
2023/11/06 10:24:07;;;;;;;;;;;;;;;6.93;100.00;99234.34;5017526;28;20065;-65
2023/11/06 10:26:33;;;;;;;6.00;4.90;;;;;;;6.91;100.00;99236.34;5033267;28;19921;-70
2023/11/06 10:29:12;;;;;;;7.27;5.23;;;;;;;6.90;100.00;99232.06;5033542;28;20064;-66
2023/11/06 10:31:40;;;;;;;6.67;5.23;;;;;;;6.97;100.00;99243.63;5031399;28;20068;-66
2023/11/06 10:34:28;;;;;;;6.50;5.90;;;;;;;7.02;100.00;99230.66;5034091;28;20043;-69
2023/11/06 10:37:10;;;;;;;6.07;5.13;;;;;;;6.86;100.00;99220.19;5025837;28;21150;-66
2023/11/06 10:39:56;;;;;;;6.50;5.43;;;;;;;6.81;100.00;99228.66;5028844;28;20041;-69
2023/11/06 10:42:23;;;;;;;4.87;4.13;;;;;;;6.64;100.00;99213.06;5031966;28;20412;-67
2023/11/06 10:44:59;;;;;;;5.53;4.20;;;;;;;6.61;100.00;99201.00;5013695;28;20048;-69
2023/11/06 10:47:36;;;;;;;5.20;4.37;;;;;;;6.64;100.00;99218.34;5026870;28;20416;-66
2023/11/06 10:50:11;;;;;;;6.33;4.03;;;;;;;6.63;100.00;99214.06;5031734;28;20053;-70
2023/11/06 10:52:41;;;;;;;5.40;3.80;;;;;;;6.67;100.00;99232.06;5031538;28;20176;-68
2023/11/06 10:55:08;;;;;;;6.50;4.23;;;;;;;6.56;100.00;99191.94;5031205;28;20033;-67
2023/11/06 10:57:35;;;;;;;4.77;4.10;;;;;;;6.74;100.00;99221.59;5028498;28;20057;-68
2023/11/06 11:00:11;;;;;;;6.70;4.20;;;;;;;6.72;100.00;99207.72;5031497;28;20045;-64
2023/11/06 11:02:45;;;;;;;5.57;4.60;;;;;;;6.75;100.00;99199.44;5031369;28;20134;-65
2023/11/06 11:05:14;;;;;;;4.57;4.17;;;;;;;6.71;100.00;99200.78;5031171;28;20091;-66
2023/11/06 11:07:41;;;;;;;4.30;3.83;;;;;;;6.70;100.00;99196.50;5031180;28;20080;-64
2023/11/06 11:10:12;;;;;;;3.70;3.33;;;;;;;6.68;100.00;99190.56;5031176;28;20623;-64
2023/11/06 11:12:40;;;;;;;10.43;4.03;;;;;;;6.02;100.00;99104.69;5031568;28;20059;-69
2023/11/06 11:15:08;;;;;;;4.97;4.07;;;;;;;6.58;100.00;99177.53;5031190;28;20417;-63
2023/11/06 11:17:34;;;;;;;4.40;3.80;;;;;;;6.51;100.00;99160.75;5031249;28;20037;-66
2023/11/06 11:20:07;;;;;;;6.43;3.50;;;;;;;6.85;100.00;99205.31;5030072;28;20128;-67
2023/11/06 11:23:03;;;;;;;5.20;4.00;;;;;;;6.87;100.00;99211.25;5030775;28;20036;-65
2023/11/06 11:26:00;;;;;;;4.20;3.80;;;;;;;6.86;100.00;99208.78;5031875;28;20068;-64
2023/11/06 11:28:26;;;;;;;4.43;3.87;;;;;;;6.88;100.00;99207.59;5032992;28;20038;-65